createdAt,value
2022-09-15T00:00:40.218Z,2.80
2022-09-15T00:02:13.245Z,3.45
2022-09-15T00:03:45.493Z,2.88
2022-09-15T00:05:18.530Z,3.40
2022-09-15T00:06:50.515Z,3.28
2022-09-15T00:08:23.330Z,3.00
2022-09-15T00:09:55.349Z,3.10
2022-09-15T00:11:31.845Z,2.95
2022-09-15T00:13:03.779Z,3.00
2022-09-15T00:14:35.857Z,3.10
2022-09-15T00:16:08.877Z,2.90
2022-09-15T00:17:42.833Z,3.10
2022-09-15T00:19:14.909Z,2.67
2022-09-15T00:20:46.982Z,3.03
2022-09-15T00:22:21.538Z,3.05
2022-09-15T00:23:56.371Z,3.08
2022-09-15T00:25:29.085Z,3.10
2022-09-15T00:27:01.058Z,2.70
2022-09-15T00:28:33.269Z,3.28
2022-09-15T00:30:06.245Z,3.05
2022-09-15T00:31:38.321Z,3.35
2022-09-15T00:33:11.306Z,3.13
2022-09-15T00:34:43.378Z,3.33
2022-09-15T00:36:16.484Z,3.08
2022-09-15T00:37:48.500Z,3.38
2022-09-15T00:39:20.829Z,2.88
2022-09-15T00:40:57.481Z,2.75
2022-09-15T00:42:29.546Z,3.22
2022-09-15T00:44:04.830Z,2.92
2022-09-15T00:45:37.612Z,2.80
2022-09-15T00:47:19.269Z,3.03
2022-09-15T00:49:05.137Z,3.30
2022-09-15T00:50:38.179Z,3.15
2022-09-15T00:52:21.467Z,2.58
2022-09-15T00:53:53.907Z,2.83
2022-09-15T00:55:34.679Z,2.75
2022-09-15T00:57:16.308Z,2.70
2022-09-15T00:59:01.655Z,3.00
2022-09-15T01:00:35.316Z,3.08
2022-09-15T01:02:20.524Z,2.80
2022-09-15T01:03:52.789Z,2.80
2022-09-15T01:05:28.077Z,3.10
2022-09-15T01:07:04.155Z,3.05
2022-09-15T01:09:02.172Z,3.10
2022-09-15T01:10:39.320Z,2.72
2022-09-15T01:12:11.247Z,2.80
2022-09-15T01:13:44.651Z,3.20
2022-09-15T01:17:07.396Z,3.00
2022-09-15T01:19:05.607Z,2.65
2022-09-15T01:21:06.775Z,2.70
2022-09-15T01:22:42.096Z,4.05
2022-09-15T01:24:30.616Z,2.67
2022-09-15T01:26:34.261Z,3.33
2022-09-15T01:28:30.758Z,3.00
2022-09-15T01:30:15.830Z,3.28
2022-09-15T01:32:12.518Z,3.05
2022-09-15T01:33:50.092Z,2.67
2022-09-15T01:35:43.454Z,2.80
2022-09-15T01:37:20.720Z,3.13
2022-09-15T01:39:01.327Z,2.83
2022-09-15T01:40:40.080Z,2.72
2022-09-15T01:42:14.380Z,2.70
2022-09-15T01:44:06.285Z,2.65
2022-09-15T01:45:39.805Z,2.58
2022-09-15T01:47:14.424Z,2.88
2022-09-15T01:48:47.912Z,2.60
2022-09-15T01:50:26.535Z,2.40
2022-09-15T01:51:58.552Z,2.50
2022-09-15T01:53:30.714Z,2.85
2022-09-15T01:55:08.213Z,2.83
2022-09-15T01:56:42.236Z,2.70
2022-09-15T01:58:14.317Z,2.60
2022-09-15T01:59:52.051Z,2.70
2022-09-15T02:01:44.050Z,2.67
2022-09-15T02:03:33.459Z,2.55
2022-09-15T02:05:21.016Z,2.40
2022-09-15T02:06:56.734Z,2.70
2022-09-15T02:08:45.549Z,2.65
2022-09-15T02:10:24.681Z,2.60
2022-09-15T02:12:20.249Z,2.90
2022-09-15T02:14:00.180Z,2.70
2022-09-15T02:15:48.722Z,2.20
2022-09-15T02:17:21.542Z,2.60
2022-09-15T02:19:11.845Z,2.80
2022-09-15T02:20:49.643Z,2.55
2022-09-15T02:22:30.720Z,2.80
2022-09-15T02:24:11.305Z,2.30
2022-09-15T02:25:52.162Z,2.63
2022-09-15T02:27:25.837Z,2.70
2022-09-15T02:28:58.555Z,2.60
2022-09-15T02:30:32.230Z,2.55
2022-09-15T02:32:07.401Z,2.95
2022-09-15T02:33:46.023Z,2.70
2022-09-15T02:35:18.453Z,3.10
2022-09-15T02:36:53.433Z,2.93
2022-09-15T02:38:28.992Z,3.00
2022-09-15T02:40:01.923Z,2.72
2022-09-15T02:41:35.687Z,2.58
2022-09-15T02:43:14.125Z,2.78
2022-09-15T02:44:46.082Z,2.80
2022-09-15T02:46:20.120Z,2.60
2022-09-15T02:47:52.150Z,3.20
2022-09-15T02:49:24.167Z,2.92
2022-09-15T02:50:56.190Z,2.80
2022-09-15T02:52:28.139Z,3.15
2022-09-15T02:54:00.227Z,2.60
2022-09-15T02:55:32.192Z,2.70
2022-09-15T02:57:04.419Z,2.80
2022-09-15T02:58:36.716Z,2.58
2022-09-15T03:00:16.400Z,2.53
2022-09-15T03:01:48.446Z,2.55
2022-09-15T03:03:22.292Z,2.58
2022-09-15T03:04:54.349Z,2.60
2022-09-15T03:06:28.282Z,3.00
2022-09-15T03:08:00.225Z,2.67
2022-09-15T03:09:32.226Z,2.75
2022-09-15T03:11:07.434Z,2.60
2022-09-15T03:12:44.827Z,2.45
2022-09-15T03:14:16.848Z,2.80
2022-09-15T03:15:48.844Z,2.75
2022-09-15T03:17:21.024Z,2.42
2022-09-15T03:18:55.834Z,2.60
2022-09-15T03:20:28.945Z,2.50
2022-09-15T03:22:00.989Z,2.55
2022-09-15T03:23:35.518Z,2.95
2022-09-15T03:25:08.403Z,2.75
2022-09-15T03:26:40.362Z,2.60
2022-09-15T03:28:12.413Z,2.33
2022-09-15T03:29:44.502Z,2.67
2022-09-15T03:31:16.658Z,2.25
2022-09-15T03:32:49.095Z,2.70
2022-09-15T03:34:21.154Z,2.90
2022-09-15T03:35:53.586Z,2.60
2022-09-15T03:37:26.024Z,2.40
2022-09-15T03:38:58.718Z,2.60
2022-09-15T03:40:31.120Z,2.60
2022-09-15T03:42:03.240Z,3.30
2022-09-15T03:43:35.865Z,2.88
2022-09-15T03:45:08.255Z,3.65
2022-09-15T03:46:40.234Z,3.22
2022-09-15T03:48:12.226Z,3.60
2022-09-15T03:49:44.255Z,3.45
2022-09-15T03:51:16.240Z,3.20
2022-09-15T03:52:48.274Z,3.58
2022-09-15T03:54:20.260Z,3.35
2022-09-15T03:57:25.279Z,3.35
2022-09-15T03:58:57.837Z,3.13
2022-09-15T04:00:29.960Z,3.10
2022-09-15T04:02:02.155Z,3.45
2022-09-15T04:03:37.460Z,3.28
2022-09-15T04:05:13.716Z,3.22
2022-09-15T04:08:17.564Z,2.83
2022-09-15T04:09:50.684Z,3.30
2022-09-15T04:11:23.206Z,3.00
2022-09-15T04:12:55.344Z,2.85
2022-09-15T04:14:28.277Z,3.08
2022-09-15T04:16:05.234Z,2.90
2022-09-15T04:17:37.610Z,3.03
2022-09-15T04:19:09.782Z,2.90
2022-09-15T04:20:41.894Z,3.17
2022-09-15T04:22:17.661Z,3.05
2022-09-15T04:23:50.856Z,2.60
2022-09-15T04:26:56.909Z,3.17
2022-09-15T04:28:31.903Z,2.72
2022-09-15T04:30:04.937Z,3.05
2022-09-15T04:31:37.272Z,3.60
2022-09-15T04:33:09.696Z,3.42
2022-09-15T04:34:41.950Z,2.95
2022-09-15T04:36:16.897Z,3.30
2022-09-15T04:37:49.043Z,3.45
2022-09-15T04:39:21.194Z,3.38
2022-09-15T04:40:53.440Z,3.20
2022-09-15T04:42:26.445Z,2.92
2022-09-15T04:43:58.837Z,3.13
2022-09-15T04:45:31.301Z,3.50
2022-09-15T04:47:03.647Z,3.28
2022-09-15T04:48:36.022Z,3.30
2022-09-15T04:50:08.355Z,3.10
2022-09-15T04:51:40.790Z,4.10
2022-09-15T04:53:13.199Z,3.40
2022-09-15T04:54:45.891Z,3.83
2022-09-15T04:56:22.183Z,3.25
2022-09-15T04:57:55.705Z,3.35
2022-09-15T05:01:14.107Z,3.00
2022-09-15T05:02:46.855Z,3.20
2022-09-15T05:04:19.122Z,2.60
2022-09-15T05:05:51.349Z,3.90
2022-09-15T05:07:23.580Z,3.47
2022-09-15T05:08:57.813Z,3.30
2022-09-15T05:10:30.177Z,3.00
2022-09-15T05:12:02.546Z,2.60
2022-09-15T05:13:35.593Z,2.78
2022-09-15T05:15:08.723Z,3.55
2022-09-15T05:16:41.171Z,3.15
2022-09-15T05:18:13.603Z,3.83
2022-09-15T05:19:46.803Z,3.70
2022-09-15T05:21:21.253Z,3.80
2022-09-15T05:22:53.636Z,3.83
2022-09-15T05:24:25.963Z,3.83
2022-09-15T05:25:59.731Z,3.80
2022-09-15T05:27:35.842Z,3.38
2022-09-15T05:29:08.224Z,3.60
2022-09-15T05:30:44.227Z,2.92
2022-09-15T05:32:16.613Z,3.13
2022-09-15T05:33:50.034Z,3.03
2022-09-15T05:35:24.016Z,3.47
2022-09-15T05:36:56.255Z,3.17
2022-09-15T05:38:32.516Z,3.05
2022-09-15T05:40:09.137Z,3.50
2022-09-15T05:41:41.772Z,4.00
2022-09-15T05:43:14.542Z,3.65
2022-09-15T05:44:46.984Z,2.97
2022-09-15T05:46:20.022Z,2.30
2022-09-15T05:47:52.445Z,2.45
2022-09-15T05:49:28.962Z,2.20
2022-09-15T05:51:01.507Z,3.05
2022-09-15T05:52:33.869Z,3.72
2022-09-15T05:54:06.973Z,3.65
2022-09-15T05:55:39.050Z,4.78
2022-09-15T05:57:11.417Z,5.20
2022-09-15T05:58:45.700Z,3.80
2022-09-15T06:00:19.492Z,2.60
2022-09-15T06:01:51.919Z,4.68
2022-09-15T06:05:10.785Z,2.40
2022-09-15T06:06:43.206Z,2.00
2022-09-15T06:08:15.415Z,2.00
2022-09-15T06:09:47.396Z,2.40
2022-09-15T06:11:21.036Z,2.13
2022-09-15T06:12:53.916Z,2.25
2022-09-15T06:14:26.090Z,2.00
2022-09-15T06:16:03.227Z,2.20
2022-09-15T06:17:35.759Z,2.05
2022-09-15T06:19:08.027Z,2.30
2022-09-15T06:20:40.721Z,2.20
2022-09-15T06:22:13.085Z,2.38
2022-09-15T06:23:50.062Z,2.37
2022-09-15T06:25:23.358Z,2.40
2022-09-15T06:26:55.664Z,2.15
2022-09-15T06:28:27.946Z,2.42
2022-09-15T06:30:00.372Z,2.63
2022-09-15T06:31:34.104Z,2.88
2022-09-15T06:33:06.302Z,2.08
2022-09-15T06:34:38.436Z,2.30
2022-09-15T06:36:15.252Z,2.83
2022-09-15T06:37:48.144Z,2.22
2022-09-15T06:39:20.349Z,2.33
2022-09-15T06:40:59.807Z,1.83
2022-09-15T06:42:32.336Z,2.15
2022-09-15T06:44:04.760Z,2.70
2022-09-15T06:45:37.210Z,2.33
2022-09-15T06:47:10.915Z,1.83
2022-09-15T06:50:18.528Z,2.20
2022-09-15T06:51:51.408Z,1.92
2022-09-15T06:53:23.792Z,1.95
2022-09-15T06:54:56.084Z,2.10
2022-09-15T06:56:28.737Z,1.70
2022-09-15T06:58:00.973Z,1.85
2022-09-15T06:59:33.267Z,1.90
2022-09-15T07:01:27.609Z,1.83
2022-09-15T07:02:59.769Z,1.80
2022-09-15T07:04:31.883Z,1.88
2022-09-15T07:06:05.228Z,1.90
2022-09-15T07:07:37.238Z,1.80
2022-09-15T07:09:11.910Z,1.65
2022-09-15T07:10:45.474Z,1.90
2022-09-15T07:12:18.026Z,2.38
2022-09-15T07:13:50.326Z,1.88
2022-09-15T07:15:25.310Z,2.00
2022-09-15T07:16:57.689Z,1.70
2022-09-15T07:18:31.307Z,2.08
2022-09-15T07:20:04.267Z,1.70
2022-09-15T07:21:36.666Z,1.85
2022-09-15T07:23:09.224Z,2.00
2022-09-15T07:24:41.650Z,1.60
2022-09-15T07:26:18.636Z,1.73
2022-09-15T07:27:50.977Z,1.52
2022-09-15T07:29:23.189Z,1.67
2022-09-15T07:30:55.562Z,2.00
2022-09-15T07:32:27.586Z,1.98
2022-09-15T07:35:32.687Z,1.92
2022-09-15T07:37:05.295Z,1.85
2022-09-15T07:38:42.761Z,2.08
2022-09-15T07:40:15.740Z,1.67
2022-09-15T07:41:48.077Z,2.05
2022-09-15T07:43:23.448Z,2.00
2022-09-15T07:44:55.963Z,1.50
2022-09-15T07:46:31.470Z,1.98
2022-09-15T07:48:04.332Z,1.88
2022-09-15T07:49:37.234Z,1.60
2022-09-15T07:51:09.520Z,2.03
2022-09-15T07:52:41.789Z,1.80
2022-09-15T07:54:16.295Z,1.73
2022-09-15T07:55:55.320Z,1.90
2022-09-15T07:57:27.861Z,2.00
2022-09-15T07:59:00.206Z,1.85
2022-09-15T08:00:32.487Z,1.63
2022-09-15T08:02:04.795Z,2.00
2022-09-15T08:03:39.963Z,1.80
2022-09-15T08:05:12.192Z,1.67
2022-09-15T08:06:44.492Z,1.83
2022-09-15T08:08:16.472Z,1.70
2022-09-15T08:09:48.562Z,1.70
2022-09-15T08:11:21.727Z,1.98
2022-09-15T08:12:54.406Z,1.80
2022-09-15T08:14:26.459Z,1.80
2022-09-15T08:16:05.817Z,2.13
2022-09-15T08:17:38.035Z,2.20
2022-09-15T08:19:10.008Z,1.57
2022-09-15T08:20:43.446Z,1.65
2022-09-15T08:22:15.577Z,1.70
2022-09-15T08:23:52.589Z,1.70
2022-09-15T08:25:25.005Z,2.00
2022-09-15T08:26:57.518Z,2.17
2022-09-15T08:28:31.961Z,1.70
2022-09-15T08:30:06.022Z,1.73
2022-09-15T08:31:38.191Z,2.17
2022-09-15T08:33:10.478Z,1.40
2022-09-15T08:34:42.775Z,2.00
2022-09-15T08:36:14.872Z,2.38
2022-09-15T08:37:47.923Z,1.70
2022-09-15T08:41:01.753Z,1.67
2022-09-15T08:42:33.929Z,1.70
2022-09-15T08:44:23.365Z,1.73
2022-09-15T08:46:05.228Z,1.75
2022-09-15T08:47:46.164Z,1.80
2022-09-15T08:49:50.960Z,2.08
2022-09-15T08:51:38.379Z,1.67
2022-09-15T08:53:26.996Z,1.52
2022-09-15T08:55:04.453Z,1.80
2022-09-15T08:56:37.452Z,1.70
2022-09-15T08:59:44.954Z,1.67
2022-09-15T09:01:36.121Z,1.77
2022-09-15T09:03:58.662Z,1.85
2022-09-15T09:06:14.531Z,1.70
2022-09-15T09:08:17.506Z,1.80
2022-09-15T09:10:07.959Z,1.98
2022-09-15T09:12:01.948Z,1.95
2022-09-15T09:13:46.006Z,1.80
2022-09-15T09:15:32.385Z,1.83
2022-09-15T09:17:32.238Z,1.48
2022-09-15T09:19:22.943Z,1.70
2022-09-15T09:21:11.466Z,2.20
2022-09-15T09:22:44.708Z,1.90
2022-09-15T09:25:50.422Z,1.90
2022-09-15T09:29:00.820Z,2.00
2022-09-15T09:30:34.033Z,1.60
2022-09-15T09:32:27.748Z,1.70
2022-09-15T09:34:16.468Z,2.00
2022-09-15T09:35:53.101Z,1.77
2022-09-15T09:37:26.085Z,1.90
2022-09-15T09:40:33.174Z,1.80
2022-09-15T09:42:06.893Z,1.70
2022-09-15T09:43:39.208Z,1.92
2022-09-15T09:45:18.986Z,2.08
2022-09-15T09:46:51.436Z,1.90
2022-09-15T09:48:25.921Z,2.00
2022-09-15T09:49:58.645Z,1.90
2022-09-15T09:51:32.125Z,2.15
2022-09-15T09:53:27.360Z,1.90
2022-09-15T09:55:03.806Z,1.80
2022-09-15T09:56:36.037Z,2.00
2022-09-15T09:58:19.684Z,1.85
2022-09-15T09:59:52.266Z,1.75
2022-09-15T10:01:26.325Z,1.80
2022-09-15T10:02:58.713Z,1.90
2022-09-15T10:04:31.000Z,2.20
2022-09-15T10:06:07.118Z,1.83
2022-09-15T10:07:44.071Z,1.92
2022-09-15T10:09:17.928Z,1.75
2022-09-15T10:10:52.113Z,1.80
2022-09-15T10:12:31.957Z,1.80
2022-09-15T10:14:03.980Z,2.10
2022-09-15T10:15:36.926Z,1.90
2022-09-15T10:18:44.011Z,1.85
2022-09-15T10:20:33.041Z,1.83
2022-09-15T10:22:05.545Z,2.20
2022-09-15T10:23:37.750Z,1.90
2022-09-15T10:25:21.506Z,1.80
2022-09-15T10:27:07.509Z,1.70
2022-09-15T10:28:39.975Z,1.80
2022-09-15T10:30:15.262Z,2.00
2022-09-15T10:31:47.826Z,1.85
2022-09-15T10:33:27.971Z,1.90
2022-09-15T10:35:07.939Z,1.88
2022-09-15T10:36:40.244Z,2.17
2022-09-15T10:38:14.018Z,1.92
2022-09-15T10:39:52.423Z,2.13
2022-09-15T10:41:32.322Z,2.13
2022-09-15T10:43:48.800Z,2.00
2022-09-15T10:45:32.882Z,2.05
2022-09-15T10:47:28.610Z,2.15
2022-09-15T10:49:41.343Z,1.73
2022-09-15T10:51:22.334Z,2.00
2022-09-15T10:53:10.903Z,1.90
2022-09-15T10:54:55.037Z,2.00
2022-09-15T10:56:28.949Z,1.90
2022-09-15T10:58:16.035Z,2.25
2022-09-15T11:00:26.236Z,2.30
2022-09-15T11:03:49.647Z,1.83
2022-09-15T11:05:52.722Z,1.88
2022-09-15T11:07:40.208Z,2.13
2022-09-15T11:09:21.242Z,2.10
2022-09-15T11:11:02.096Z,2.03
2022-09-15T11:12:55.968Z,2.30
2022-09-15T11:14:49.279Z,2.08
2022-09-15T11:16:44.369Z,2.30
2022-09-15T11:18:50.553Z,1.83
2022-09-15T11:20:25.957Z,2.08
2022-09-15T11:22:25.335Z,2.35
2022-09-15T11:24:09.441Z,2.72
2022-09-15T11:25:45.528Z,2.00
2022-09-15T11:27:27.772Z,2.00
2022-09-15T11:29:24.967Z,2.38
2022-09-15T11:31:23.813Z,2.42
2022-09-15T11:33:18.853Z,2.65
2022-09-15T11:35:00.648Z,2.40
2022-09-15T11:38:29.250Z,1.90
2022-09-15T11:40:37.179Z,2.28
2022-09-15T11:42:14.218Z,2.00
2022-09-15T11:44:06.801Z,2.20
2022-09-15T11:45:46.131Z,1.95
2022-09-15T11:47:26.502Z,2.50
2022-09-15T11:49:05.216Z,2.35
2022-09-15T11:50:40.963Z,2.00
2022-09-15T11:52:28.113Z,2.10
2022-09-15T11:54:31.016Z,2.10
2022-09-15T11:56:24.060Z,2.08
2022-09-15T11:58:34.058Z,2.20
2022-09-15T12:00:12.055Z,2.03
2022-09-15T12:01:56.268Z,2.47
2022-09-15T12:03:53.166Z,2.20
2022-09-15T12:05:49.724Z,2.00
2022-09-15T12:09:01.273Z,1.85
2022-09-15T12:10:40.794Z,2.30
2022-09-15T12:12:16.044Z,2.10
2022-09-15T12:13:48.502Z,2.13
2022-09-15T12:15:27.807Z,2.63
2022-09-15T12:17:00.100Z,2.30
2022-09-15T12:18:40.148Z,2.20
2022-09-15T12:20:24.391Z,2.67
2022-09-15T12:21:59.503Z,2.00
2022-09-15T12:23:41.844Z,1.98
2022-09-15T12:26:02.012Z,2.00
2022-09-15T12:27:34.525Z,2.78
2022-09-15T12:29:26.696Z,1.92
2022-09-15T12:31:26.831Z,2.63
2022-09-15T12:32:59.329Z,2.30
2022-09-15T12:34:37.446Z,2.53
2022-09-15T12:36:34.885Z,2.08
2022-09-15T12:38:14.306Z,2.15
2022-09-15T12:39:47.864Z,2.10
2022-09-15T12:41:20.455Z,2.45
2022-09-15T12:42:52.945Z,2.20
2022-09-15T12:44:38.218Z,2.33
2022-09-15T12:46:18.731Z,2.53
2022-09-15T12:48:15.301Z,2.83
2022-09-15T12:49:49.384Z,2.22
2022-09-15T12:51:23.705Z,2.00
2022-09-15T12:52:59.807Z,2.25
2022-09-15T12:54:33.511Z,1.77
2022-09-15T12:56:08.855Z,2.35
2022-09-15T12:57:41.157Z,2.13
2022-09-15T12:59:15.449Z,2.50
2022-09-15T13:01:14.267Z,2.40
2022-09-15T13:02:46.864Z,2.40
2022-09-15T13:04:28.423Z,2.20
2022-09-15T13:06:22.670Z,2.17
2022-09-15T13:07:57.712Z,1.63
2022-09-15T13:09:30.305Z,2.13
2022-09-15T13:11:29.456Z,2.05
2022-09-15T13:13:28.747Z,1.90
2022-09-15T13:15:06.333Z,2.40
2022-09-15T13:16:41.682Z,1.98
2022-09-15T13:18:15.419Z,2.28
2022-09-15T13:19:49.686Z,1.65
2022-09-15T13:21:24.499Z,2.30
2022-09-15T13:22:59.470Z,6.20
2022-09-15T13:25:00.769Z,10.02
2022-09-15T13:26:34.980Z,3.63
2022-09-15T13:29:54.102Z,3.60
2022-09-15T13:31:35.340Z,2.10
2022-09-15T13:33:26.213Z,2.20
2022-09-15T13:35:36.752Z,2.20
2022-09-15T13:39:36.339Z,2.20
2022-09-15T13:43:05.739Z,2.28
2022-09-15T13:45:05.952Z,2.90
2022-09-15T13:47:10.376Z,2.13
2022-09-15T13:49:09.825Z,1.90
2022-09-15T13:50:46.368Z,2.08
2022-09-15T13:52:22.846Z,1.88
2022-09-15T13:53:56.887Z,2.10
2022-09-15T13:55:33.516Z,2.13
2022-09-15T13:57:05.841Z,2.00
2022-09-15T13:59:00.972Z,2.10
2022-09-15T14:00:55.659Z,2.28
2022-09-15T14:02:29.217Z,2.08
2022-09-15T14:04:14.932Z,2.65
2022-09-15T14:05:47.468Z,2.00
2022-09-15T14:07:23.922Z,2.17
2022-09-15T14:08:59.069Z,2.03
2022-09-15T14:10:35.664Z,2.08
2022-09-15T14:12:12.983Z,1.88
2022-09-15T14:13:49.976Z,1.60
2022-09-15T14:24:36.043Z,9.10
2022-09-15T14:26:14.193Z,2.17
2022-09-15T14:27:49.091Z,2.13
2022-09-15T14:29:24.971Z,2.75
2022-09-15T14:30:57.305Z,2.83
2022-09-15T14:32:32.003Z,2.03
2022-09-15T14:34:07.280Z,2.17
2022-09-15T14:35:42.415Z,2.33
2022-09-15T14:37:24.465Z,2.25
2022-09-15T14:39:12.218Z,2.00
2022-09-15T14:40:44.572Z,1.90
2022-09-15T14:42:23.079Z,1.98
2022-09-15T14:43:55.371Z,2.05
2022-09-15T14:47:34.982Z,2.20
2022-09-15T14:49:14.979Z,2.20
2022-09-15T14:50:58.986Z,1.98
2022-09-15T14:52:33.985Z,2.67
2022-09-15T14:54:07.210Z,3.00
2022-09-15T14:55:52.643Z,3.58
2022-09-15T14:57:30.853Z,3.30
2022-09-15T14:59:07.223Z,2.40
2022-09-15T15:00:56.132Z,2.45
2022-09-15T15:02:46.113Z,3.17
2022-09-15T15:04:33.797Z,4.03
2022-09-15T15:06:30.009Z,4.70
2022-09-15T15:08:05.180Z,4.10
2022-09-15T15:09:42.318Z,3.53
2022-09-15T15:11:16.582Z,2.88
2022-09-15T15:12:52.454Z,3.13
2022-09-15T15:14:24.891Z,3.00
2022-09-15T15:15:57.541Z,2.72
2022-09-15T15:17:56.316Z,3.13
2022-09-15T15:19:38.173Z,4.15
2022-09-15T15:21:44.482Z,3.85
2022-09-15T15:23:23.849Z,5.40
2022-09-15T15:24:56.771Z,5.18
2022-09-15T15:28:32.999Z,3.95
2022-09-15T15:30:31.231Z,3.85
2022-09-15T15:32:11.586Z,3.35
2022-09-15T15:33:59.773Z,3.38
2022-09-15T15:35:33.747Z,3.42
2022-09-15T15:37:15.023Z,3.67
2022-09-15T15:38:51.730Z,3.65
2022-09-15T15:40:24.115Z,3.63
2022-09-15T15:42:05.389Z,3.95
2022-09-15T15:43:38.116Z,4.78
2022-09-15T15:45:10.457Z,3.20
2022-09-15T15:46:59.106Z,4.20
2022-09-15T15:48:37.360Z,2.90
2022-09-15T15:50:13.916Z,2.50
2022-09-15T15:51:47.115Z,2.60
2022-09-15T15:53:19.414Z,3.08
2022-09-15T15:54:51.838Z,2.90
2022-09-15T15:56:26.077Z,2.60
2022-09-15T15:57:59.075Z,2.60
2022-09-15T16:01:06.512Z,2.53
2022-09-15T16:02:38.810Z,2.72
2022-09-15T16:04:12.726Z,2.75
2022-09-15T16:05:47.045Z,2.70
2022-09-15T16:07:21.325Z,2.20
2022-09-15T16:08:54.064Z,2.20
2022-09-15T16:10:30.445Z,2.58
2022-09-15T16:12:02.887Z,2.80
2022-09-15T16:13:35.424Z,2.33
2022-09-15T16:15:15.232Z,2.08
2022-09-15T16:16:47.528Z,2.20
2022-09-15T16:18:19.923Z,2.30
2022-09-15T16:19:52.264Z,2.83
2022-09-15T16:21:38.858Z,2.20
2022-09-15T16:23:15.222Z,2.35
2022-09-15T16:24:48.055Z,2.20
2022-09-15T16:26:23.605Z,2.40
2022-09-15T16:27:56.016Z,2.20
2022-09-15T16:29:36.555Z,2.10
2022-09-15T16:31:13.834Z,2.20
2022-09-15T16:32:46.151Z,2.08
2022-09-15T16:34:18.615Z,2.38
2022-09-15T16:35:55.670Z,2.33
2022-09-15T16:37:28.008Z,2.45
2022-09-15T16:39:00.245Z,2.50
2022-09-15T16:40:32.373Z,2.40
2022-09-15T16:42:05.142Z,2.37
2022-09-15T16:43:37.460Z,2.00
2022-09-15T16:45:19.994Z,2.35
2022-09-15T16:46:52.559Z,3.50
2022-09-15T16:48:25.081Z,2.78
2022-09-15T16:49:57.324Z,2.38
2022-09-15T16:51:31.676Z,2.53
2022-09-15T16:53:04.846Z,2.50
2022-09-15T16:54:37.070Z,2.45
2022-09-15T16:56:13.005Z,3.67
2022-09-15T16:57:45.584Z,2.72
2022-09-15T16:59:18.418Z,3.08
2022-09-15T17:00:53.253Z,2.97
2022-09-15T17:02:25.792Z,2.30
2022-09-15T17:03:58.413Z,2.20
2022-09-15T17:05:37.638Z,2.90
2022-09-15T17:07:09.908Z,2.65
2022-09-15T17:08:42.516Z,2.87
2022-09-15T17:10:15.039Z,2.50
2022-09-15T17:11:47.405Z,2.60
2022-09-15T17:14:57.413Z,2.80
2022-09-15T17:16:30.928Z,2.65
2022-09-15T17:18:03.963Z,3.10
2022-09-15T17:19:36.183Z,2.42
2022-09-15T17:21:11.452Z,2.37
2022-09-15T17:22:43.855Z,2.72
2022-09-15T17:24:17.858Z,2.70
2022-09-15T17:25:57.710Z,2.53
2022-09-15T17:27:30.251Z,3.10
2022-09-15T17:29:02.293Z,2.72
2022-09-15T17:30:36.246Z,2.80
2022-09-15T17:32:09.494Z,2.80
2022-09-15T17:33:42.522Z,2.85
2022-09-15T17:35:20.905Z,2.65
2022-09-15T17:36:53.120Z,2.75
2022-09-15T17:38:26.114Z,3.10
2022-09-15T17:39:59.184Z,2.53
2022-09-15T17:43:03.933Z,2.80
2022-09-15T17:44:37.760Z,2.63
2022-09-15T17:46:10.196Z,2.63
2022-09-15T17:47:42.487Z,2.80
2022-09-15T17:49:14.885Z,3.40
2022-09-15T17:50:49.104Z,2.83
2022-09-15T17:52:21.405Z,2.97
2022-09-15T17:53:55.295Z,3.03
2022-09-15T17:55:34.832Z,2.88
2022-09-15T17:57:07.085Z,3.17
2022-09-15T17:58:40.249Z,2.60
2022-09-15T18:01:48.766Z,2.40
2022-09-15T18:04:57.925Z,3.10
2022-09-15T18:06:30.211Z,3.20
2022-09-15T18:08:05.429Z,2.70
2022-09-15T18:09:37.683Z,2.80
2022-09-15T18:11:11.909Z,2.93
2022-09-15T18:12:53.614Z,2.78
2022-09-15T18:14:28.014Z,2.85
2022-09-15T18:16:05.581Z,2.42
2022-09-15T18:17:37.964Z,2.95
2022-09-15T18:19:10.759Z,2.95
2022-09-15T18:20:43.218Z,2.92
2022-09-15T18:22:15.589Z,2.65
2022-09-15T18:23:47.910Z,2.80
2022-09-15T18:25:26.027Z,2.67
2022-09-15T18:26:58.342Z,2.78
2022-09-15T18:28:32.687Z,3.23
2022-09-15T18:30:05.305Z,3.10
2022-09-15T18:31:37.293Z,3.05
2022-09-15T18:33:20.972Z,3.00
2022-09-15T18:36:25.414Z,3.08
2022-09-15T18:37:59.152Z,2.97
2022-09-15T18:39:31.580Z,3.28
2022-09-15T18:41:09.066Z,3.72
2022-09-15T18:42:45.268Z,3.25
2022-09-15T18:44:17.870Z,2.80
2022-09-15T18:45:50.675Z,3.33
2022-09-15T18:47:22.938Z,3.25
2022-09-15T18:48:55.314Z,3.28
2022-09-15T18:50:27.992Z,3.83
2022-09-15T18:52:02.272Z,3.17
2022-09-15T18:53:36.846Z,3.42
2022-09-15T18:55:13.046Z,3.33
2022-09-15T18:56:45.494Z,3.10
2022-09-15T18:58:19.534Z,3.28
2022-09-15T18:59:52.031Z,3.65
2022-09-15T19:01:27.315Z,3.45
2022-09-15T19:03:03.325Z,3.78
2022-09-15T19:04:40.429Z,3.75
2022-09-15T19:06:15.472Z,3.25
2022-09-15T19:07:47.922Z,3.50
2022-09-15T19:09:20.227Z,3.70
2022-09-15T19:10:59.649Z,3.33
2022-09-15T19:14:04.912Z,2.90
2022-09-15T19:15:37.380Z,3.78
2022-09-15T19:17:09.702Z,3.00
2022-09-15T19:18:42.065Z,3.20
2022-09-15T19:20:16.165Z,3.63
2022-09-15T19:21:48.576Z,4.18
2022-09-15T19:23:20.886Z,3.08
2022-09-15T19:24:53.403Z,2.97
2022-09-15T19:26:29.213Z,3.53
2022-09-15T19:28:01.530Z,3.47
2022-09-15T19:29:36.105Z,4.03
2022-09-15T19:31:09.189Z,3.10
2022-09-15T19:34:13.788Z,2.85
2022-09-15T19:35:46.551Z,3.10
2022-09-15T19:37:21.332Z,3.60
2022-09-15T19:38:53.807Z,2.90
2022-09-15T19:40:26.323Z,3.03
2022-09-15T19:41:58.781Z,2.72
2022-09-15T19:43:30.874Z,2.75
2022-09-15T19:45:03.289Z,2.83
2022-09-15T19:46:35.648Z,2.33
2022-09-15T19:48:08.039Z,3.10
2022-09-15T19:49:40.732Z,2.90
2022-09-15T19:51:14.828Z,2.80
2022-09-15T19:52:47.182Z,2.40
2022-09-15T19:54:20.034Z,2.37
2022-09-15T19:55:52.889Z,2.90
2022-09-15T19:57:25.219Z,2.80
2022-09-15T19:58:58.946Z,2.72
2022-09-15T20:00:31.170Z,2.40
2022-09-15T20:02:03.703Z,2.60
2022-09-15T20:03:35.833Z,2.85
2022-09-15T20:05:08.905Z,2.67
2022-09-15T20:06:41.248Z,2.72
2022-09-15T20:08:13.597Z,3.63
2022-09-15T20:09:47.898Z,3.10
2022-09-15T20:11:20.424Z,2.88
2022-09-15T20:12:52.546Z,2.90
2022-09-15T20:14:24.925Z,2.92
2022-09-15T20:16:02.706Z,3.97
2022-09-15T20:17:34.870Z,2.80
2022-09-15T20:19:07.659Z,3.00
2022-09-15T20:20:40.689Z,3.00
2022-09-15T20:22:13.108Z,3.25
2022-09-15T20:23:45.938Z,3.10
2022-09-15T20:25:18.245Z,3.30
2022-09-15T20:26:51.254Z,2.97
2022-09-15T20:28:25.380Z,2.80
2022-09-15T20:29:57.693Z,3.05
2022-09-15T20:31:33.357Z,2.80
2022-09-15T20:33:05.395Z,2.97
2022-09-15T20:34:37.405Z,2.95
2022-09-15T20:36:23.666Z,3.25
2022-09-15T20:37:55.905Z,3.03
2022-09-15T20:39:27.942Z,2.75
2022-09-15T20:41:00.693Z,3.05
2022-09-15T20:42:32.740Z,3.30
2022-09-15T20:44:06.326Z,3.15
2022-09-15T20:45:38.415Z,3.00
2022-09-15T20:47:10.537Z,3.65
2022-09-15T20:48:42.823Z,2.70
2022-09-15T20:50:15.219Z,2.83
2022-09-15T20:51:47.242Z,3.13
2022-09-15T20:53:19.356Z,3.22
2022-09-15T20:54:51.332Z,2.90
2022-09-15T20:56:25.864Z,2.88
2022-09-15T20:57:57.888Z,2.83
2022-09-15T20:59:30.020Z,3.13
2022-09-15T21:01:07.634Z,3.00
2022-09-15T21:02:42.633Z,2.80
2022-09-15T21:04:15.549Z,3.03
2022-09-15T21:05:48.336Z,3.17
2022-09-15T21:07:20.366Z,3.47
2022-09-15T21:08:53.566Z,2.88
2022-09-15T21:10:26.518Z,3.53
2022-09-15T21:11:58.646Z,3.00
2022-09-15T21:13:32.205Z,2.80
2022-09-15T21:15:04.757Z,3.30
2022-09-15T21:16:36.926Z,2.70
2022-09-15T21:18:09.039Z,3.53
2022-09-15T21:19:41.051Z,3.30
2022-09-15T21:21:14.903Z,2.83
2022-09-15T21:22:47.190Z,2.83
2022-09-15T21:24:19.200Z,2.88
2022-09-15T21:26:06.257Z,3.10
2022-09-15T21:27:38.367Z,3.08
2022-09-15T21:29:10.551Z,2.72
2022-09-15T21:30:42.680Z,2.90
2022-09-15T21:32:14.749Z,3.30
2022-09-15T21:33:47.803Z,2.90
2022-09-15T21:35:19.814Z,3.15
2022-09-15T21:36:53.836Z,2.90
2022-09-15T21:38:25.847Z,3.20
2022-09-15T21:39:58.370Z,3.13
2022-09-15T21:41:30.863Z,2.63
2022-09-15T21:43:03.555Z,2.87
2022-09-15T21:44:35.734Z,2.90
2022-09-15T21:46:14.815Z,2.63
2022-09-15T21:47:46.798Z,2.78
2022-09-15T21:49:19.130Z,2.88
2022-09-15T21:50:54.628Z,2.90
2022-09-15T21:52:26.662Z,2.80
2022-09-15T21:53:59.916Z,2.80
2022-09-15T21:57:04.107Z,2.65
2022-09-15T21:58:43.005Z,2.75
2022-09-15T22:00:15.545Z,2.83
2022-09-15T22:01:48.874Z,2.73
2022-09-15T22:03:21.161Z,2.75
2022-09-15T22:04:53.373Z,2.80
2022-09-15T22:06:27.958Z,2.70
2022-09-15T22:08:04.712Z,2.65
2022-09-15T22:09:38.967Z,2.92
2022-09-15T22:11:11.837Z,2.70
2022-09-15T22:12:43.916Z,3.00
2022-09-15T22:14:15.915Z,2.78
2022-09-15T22:15:48.035Z,2.70
2022-09-15T22:17:20.117Z,3.00
2022-09-15T22:18:52.817Z,2.30
2022-09-15T22:20:25.408Z,2.75
2022-09-15T22:21:57.446Z,2.53
2022-09-15T22:23:29.508Z,2.90
2022-09-15T22:25:01.562Z,2.50
2022-09-15T22:26:35.893Z,2.78
2022-09-15T22:28:08.043Z,2.70